메인 페이지
METAR-TAF:

METAR-TAF

공항 :

상파울루 콩고냐스 공항

상파울루, 상파울루, 브라질

위도: 23-37S, 경도: 046-39W, 고도: 803m

현재 날씨관측

예보는 50분 전, 02:00시(UTC)에 발표되었습니다.
북동8kt
온도 25°C
습도 54%
기압 1019 hPa
시정 10km 이상
1500m 미만 상공 구름 및 적란운 없음

METAR: SBSP 130200Z AUTO 05008KT CAVOK 25/15 Q1019

시각: 00:50 (02:50 UTC)

예보

예보는 7 시간 31분 전, 19:19시(UTC)에 발표되었습니다.
예보 대상 시간: 13일 00시부터 13일 24시까지 (UTC)
동남동5kt
시정 10km 이상
1500m 미만 상공 구름 및 적란운 없음
전환 중
13일 02시부터 13일 04시까지 (UTC)
북동5kt
전환 중
13일 11시부터 13일 13시까지 (UTC)
북북서10kt
전환 중
13일 15시부터 13일 17시까지 (UTC)
서북서5kt
전환 중
13일 19시부터 13일 21시까지 (UTC)
남남동8kt

TAF: SBSP 121919Z 1300/1324 11005KT CAVOK TN22/1308Z TX32/1318Z BECMG 1302/1304 05005KT BECMG 1311/1313 33010KT BECMG 1315/1317 29005KT BECMG 1319/1321 15008KT RMK PGF

4,000개 이상의 공항 관측 자료 및 예보 (METAR 및 TAF 보고).

지도상에서 검색 가능한 기상관측소가 노란 점과 빨간 점으로 표시되어 있습니다.

기상관측소 명을 보려면 표시 위로 마우스를 이동하세요.

날씨 관측과 예보를 보려면 클릭하세요.

지도 변경 : 확대하려면 엑스 표시가 있는 녹색 버튼, 축소하려면 빼기 표시가 있는 녹색 버튼, 다음 페이지의 지도를 보려면 녹색 화살표를 클릭하세요.


METAR-TAF: